sensor_id;sensor_type;location;lat;lon;timestamp;pressure;altitude;pressure_sealevel;temperature;humidity
77106;BME280;66057;54.718;18.426;2023-01-08T00:00:48;101265.88;;;3.79;97.85
77106;BME280;66057;54.718;18.426;2023-01-08T00:03:35;101276.78;;;3.88;97.97
77106;BME280;66057;54.718;18.426;2023-01-08T00:06:06;101271.63;;;3.77;98.10
77106;BME280;66057;54.718;18.426;2023-01-08T00:08:32;101265.13;;;3.80;97.94
77106;BME280;66057;54.718;18.426;2023-01-08T00:10:58;101269.44;;;3.81;98.22
77106;BME280;66057;54.718;18.426;2023-01-08T00:13:25;101262.22;;;3.76;97.89
77106;BME280;66057;54.718;18.426;2023-01-08T00:15:51;101281.19;;;3.91;97.70
77106;BME280;66057;54.718;18.426;2023-01-08T00:18:17;101257.50;;;3.80;97.48
77106;BME280;66057;54.718;18.426;2023-01-08T00:20:43;101270.91;;;3.89;98.22
77106;BME280;66057;54.718;18.426;2023-01-08T00:23:15;101266.47;;;3.87;98.14
77106;BME280;66057;54.718;18.426;2023-01-08T00:25:41;101267.94;;;3.95;98.35
77106;BME280;66057;54.718;18.426;2023-01-08T00:28:07;101269.28;;;4.02;98.21
77106;BME280;66057;54.718;18.426;2023-01-08T00:30:33;101248.34;;;3.82;97.45
77106;BME280;66057;54.718;18.426;2023-01-08T00:32:59;101248.00;;;3.89;98.37
77106;BME280;66057;54.718;18.426;2023-01-08T00:35:24;101255.09;;;3.93;97.70
77106;BME280;66057;54.718;18.426;2023-01-08T00:37:50;101255.88;;;3.92;97.96
77106;BME280;66057;54.718;18.426;2023-01-08T00:40:16;101241.13;;;3.77;97.89
77106;BME280;66057;54.718;18.426;2023-01-08T00:42:42;101248.63;;;3.75;98.10
77106;BME280;66057;54.718;18.426;2023-01-08T00:45:08;101238.66;;;3.67;97.74
77106;BME280;66057;54.718;18.426;2023-01-08T00:47:34;101251.19;;;3.75;98.29
77106;BME280;66057;54.718;18.426;2023-01-08T00:50:00;101211.75;;;3.47;98.42
77106;BME280;66057;54.718;18.426;2023-01-08T00:52:26;101227.69;;;3.56;98.77
77106;BME280;66057;54.718;18.426;2023-01-08T00:54:51;101238.44;;;3.64;97.74
77106;BME280;66057;54.718;18.426;2023-01-08T00:57:17;101259.00;;;3.67;98.38
77106;BME280;66057;54.718;18.426;2023-01-08T00:59:43;101236.19;;;3.57;98.75
77106;BME280;66057;54.718;18.426;2023-01-08T01:02:09;101240.28;;;3.55;98.52
77106;BME280;66057;54.718;18.426;2023-01-08T01:04:34;101249.38;;;3.63;98.43
77106;BME280;66057;54.718;18.426;2023-01-08T01:07:00;101225.13;;;3.44;98.11
77106;BME280;66057;54.718;18.426;2023-01-08T01:09:26;101249.78;;;3.57;98.41
77106;BME280;66057;54.718;18.426;2023-01-08T01:11:52;101230.41;;;3.47;97.95
77106;BME280;66057;54.718;18.426;2023-01-08T01:14:18;101252.13;;;3.66;97.92
77106;BME280;66057;54.718;18.426;2023-01-08T01:16:44;101239.34;;;3.64;98.54
77106;BME280;66057;54.718;18.426;2023-01-08T01:19:11;101197.03;;;3.43;98.07
77106;BME280;66057;54.718;18.426;2023-01-08T01:21:38;101225.75;;;3.64;96.72
77106;BME280;66057;54.718;18.426;2023-01-08T01:24:04;101203.03;;;3.55;96.73
77106;BME280;66057;54.718;18.426;2023-01-08T01:26:32;101218.34;;;3.67;96.66
77106;BME280;66057;54.718;18.426;2023-01-08T01:28:58;101219.03;;;3.76;97.07
77106;BME280;66057;54.718;18.426;2023-01-08T01:31:26;101219.28;;;3.79;96.04
77106;BME280;66057;54.718;18.426;2023-01-08T01:33:53;101209.53;;;3.85;94.60
77106;BME280;66057;54.718;18.426;2023-01-08T01:36:20;101181.91;;;3.78;94.10
77106;BME280;66057;54.718;18.426;2023-01-08T01:38:51;101192.50;;;3.84;92.75
77106;BME280;66057;54.718;18.426;2023-01-08T01:43:52;101196.06;;;4.09;92.74
77106;BME280;66057;54.718;18.426;2023-01-08T01:46:37;101190.78;;;4.18;92.80
77106;BME280;66057;54.718;18.426;2023-01-08T01:49:13;101199.75;;;4.24;92.28
77106;BME280;66057;54.718;18.426;2023-01-08T01:51:49;101198.22;;;4.26;91.99
77106;BME280;66057;54.718;18.426;2023-01-08T01:54:16;101195.75;;;4.28;92.42
77106;BME280;66057;54.718;18.426;2023-01-08T01:56:43;101189.13;;;4.30;92.90
77106;BME280;66057;54.718;18.426;2023-01-08T01:59:11;101175.75;;;4.21;93.45
77106;BME280;66057;54.718;18.426;2023-01-08T02:01:37;101193.34;;;4.29;93.62
77106;BME280;66057;54.718;18.426;2023-01-08T02:04:04;101193.53;;;4.32;93.43
77106;BME280;66057;54.718;18.426;2023-01-08T02:09:59;101192.44;;;4.41;93.75
77106;BME280;66057;54.718;18.426;2023-01-08T02:12:35;101197.75;;;4.44;93.99
77106;BME280;66057;54.718;18.426;2023-01-08T02:15:23;101198.28;;;4.51;93.56
77106;BME280;66057;54.718;18.426;2023-01-08T02:20:39;101198.28;;;4.63;92.97
77106;BME280;66057;54.718;18.426;2023-01-08T02:23:13;101180.16;;;4.58;93.00
77106;BME280;66057;54.718;18.426;2023-01-08T02:26:04;101186.31;;;4.73;92.63
77106;BME280;66057;54.718;18.426;2023-01-08T02:28:37;101186.09;;;4.70;92.62
77106;BME280;66057;54.718;18.426;2023-01-08T02:31:04;101170.94;;;4.72;92.57
77106;BME280;66057;54.718;18.426;2023-01-08T02:33:31;101154.69;;;4.58;92.66
77106;BME280;66057;54.718;18.426;2023-01-08T02:36:46;101173.72;;;4.63;92.87
77106;BME280;66057;54.718;18.426;2023-01-08T02:41:52;101149.72;;;4.60;92.90
77106;BME280;66057;54.718;18.426;2023-01-08T02:47:44;101141.75;;;4.55;92.46
77106;BME280;66057;54.718;18.426;2023-01-08T02:50:50;101153.22;;;4.62;93.18
77106;BME280;66057;54.718;18.426;2023-01-08T02:53:21;101138.09;;;4.52;92.74
77106;BME280;66057;54.718;18.426;2023-01-08T02:55:54;101146.94;;;4.57;92.91
77106;BME280;66057;54.718;18.426;2023-01-08T02:58:23;101137.22;;;4.39;92.94
77106;BME280;66057;54.718;18.426;2023-01-08T03:00:50;101134.81;;;4.41;93.04
77106;BME280;66057;54.718;18.426;2023-01-08T03:03:21;101147.75;;;4.44;93.33
77106;BME280;66057;54.718;18.426;2023-01-08T03:05:51;101146.41;;;4.37;92.98
77106;BME280;66057;54.718;18.426;2023-01-08T03:08:18;101133.28;;;4.31;92.46
77106;BME280;66057;54.718;18.426;2023-01-08T03:10:48;101146.75;;;4.30;92.69
77106;BME280;66057;54.718;18.426;2023-01-08T03:13:21;101135.47;;;4.27;92.94
77106;BME280;66057;54.718;18.426;2023-01-08T03:15:53;101127.06;;;4.28;93.23
77106;BME280;66057;54.718;18.426;2023-01-08T03:18:26;101112.22;;;4.22;93.06
77106;BME280;66057;54.718;18.426;2023-01-08T03:20:54;101130.81;;;4.33;93.15
77106;BME280;66057;54.718;18.426;2023-01-08T03:23:21;101116.66;;;4.25;93.22
77106;BME280;66057;54.718;18.426;2023-01-08T03:25:47;101141.00;;;4.33;92.43
77106;BME280;66057;54.718;18.426;2023-01-08T03:28:21;101120.88;;;4.24;93.15
77106;BME280;66057;54.718;18.426;2023-01-08T03:30:49;101145.44;;;4.35;92.58
77106;BME280;66057;54.718;18.426;2023-01-08T03:33:18;101143.09;;;4.38;93.22
77106;BME280;66057;54.718;18.426;2023-01-08T03:35:47;101135.25;;;4.35;92.86
77106;BME280;66057;54.718;18.426;2023-01-08T03:38:19;101121.56;;;4.22;93.08
77106;BME280;66057;54.718;18.426;2023-01-08T03:40:56;101130.16;;;4.24;92.99
77106;BME280;66057;54.718;18.426;2023-01-08T03:43:25;101154.59;;;4.33;92.54
77106;BME280;66057;54.718;18.426;2023-01-08T03:45:55;101133.47;;;4.23;92.90
77106;BME280;66057;54.718;18.426;2023-01-08T03:48:24;101142.88;;;4.35;93.01
77106;BME280;66057;54.718;18.426;2023-01-08T03:50:50;101116.56;;;4.23;92.92
77106;BME280;66057;54.718;18.426;2023-01-08T03:53:16;101142.88;;;4.35;93.11
77106;BME280;66057;54.718;18.426;2023-01-08T03:55:42;101156.91;;;4.42;93.56
77106;BME280;66057;54.718;18.426;2023-01-08T03:58:07;101137.00;;;4.36;92.76
77106;BME280;66057;54.718;18.426;2023-01-08T04:00:33;101141.31;;;4.37;92.61
77106;BME280;66057;54.718;18.426;2023-01-08T04:02:59;101135.91;;;4.33;93.12
77106;BME280;66057;54.718;18.426;2023-01-08T04:05:25;101149.41;;;4.44;93.17
77106;BME280;66057;54.718;18.426;2023-01-08T04:07:54;101140.22;;;4.34;93.35
77106;BME280;66057;54.718;18.426;2023-01-08T04:10:20;101135.25;;;4.35;93.16
77106;BME280;66057;54.718;18.426;2023-01-08T04:12:45;101134.00;;;4.42;92.68
77106;BME280;66057;54.718;18.426;2023-01-08T04:15:11;101121.53;;;4.33;93.12
77106;BME280;66057;54.718;18.426;2023-01-08T04:17:37;101127.63;;;4.35;92.74
77106;BME280;66057;54.718;18.426;2023-01-08T04:20:03;101121.19;;;4.41;93.01
77106;BME280;66057;54.718;18.426;2023-01-08T04:22:28;101120.41;;;4.42;93.00
77106;BME280;66057;54.718;18.426;2023-01-08T04:24:54;101102.06;;;4.34;92.75
77106;BME280;66057;54.718;18.426;2023-01-08T04:27:20;101111.91;;;4.29;93.00
77106;BME280;66057;54.718;18.426;2023-01-08T04:29:46;101126.81;;;4.36;93.00
77106;BME280;66057;54.718;18.426;2023-01-08T04:32:11;101095.44;;;4.24;92.58
77106;BME280;66057;54.718;18.426;2023-01-08T04:34:37;101109.69;;;4.34;93.19
77106;BME280;66057;54.718;18.426;2023-01-08T04:37:03;101088.13;;;4.29;92.68
77106;BME280;66057;54.718;18.426;2023-01-08T04:39:29;101092.69;;;4.21;93.09
77106;BME280;66057;54.718;18.426;2023-01-08T04:41:54;101110.25;;;4.30;93.33
77106;BME280;66057;54.718;18.426;2023-01-08T04:44:20;101104.16;;;4.28;93.29
77106;BME280;66057;54.718;18.426;2023-01-08T04:46:46;101075.06;;;4.13;93.00
77106;BME280;66057;54.718;18.426;2023-01-08T04:49:12;101107.72;;;4.30;93.14
77106;BME280;66057;54.718;18.426;2023-01-08T04:51:37;101081.06;;;4.13;93.37
77106;BME280;66057;54.718;18.426;2023-01-08T04:54:03;101096.75;;;4.19;92.35
77106;BME280;66057;54.718;18.426;2023-01-08T04:56:29;101093.13;;;4.16;93.36
77106;BME280;66057;54.718;18.426;2023-01-08T04:58:57;101081.84;;;4.12;93.28
77106;BME280;66057;54.718;18.426;2023-01-08T05:01:24;101049.59;;;3.88;92.60
77106;BME280;66057;54.718;18.426;2023-01-08T05:03:55;101071.56;;;3.99;93.03
77106;BME280;66057;54.718;18.426;2023-01-08T05:06:21;101058.50;;;3.94;93.37
77106;BME280;66057;54.718;18.426;2023-01-08T05:08:48;101034.31;;;3.88;92.67
77106;BME280;66057;54.718;18.426;2023-01-08T05:11:13;101044.91;;;3.94;93.46
77106;BME280;66057;54.718;18.426;2023-01-08T05:13:39;101043.16;;;3.93;93.82
77106;BME280;66057;54.718;18.426;2023-01-08T05:16:05;101013.09;;;3.76;93.24
77106;BME280;66057;54.718;18.426;2023-01-08T05:18:31;101006.47;;;3.78;93.39
77106;BME280;66057;54.718;18.426;2023-01-08T05:21:03;101010.31;;;3.84;93.83
77106;BME280;66057;54.718;18.426;2023-01-08T05:23:30;101021.81;;;3.91;93.34
77106;BME280;66057;54.718;18.426;2023-01-08T05:26:00;100994.41;;;3.75;93.50
77106;BME280;66057;54.718;18.426;2023-01-08T05:28:27;101001.81;;;3.84;93.42
77106;BME280;66057;54.718;18.426;2023-01-08T05:30:53;101012.97;;;3.98;93.23
77106;BME280;66057;54.718;18.426;2023-01-08T05:33:19;101022.47;;;4.12;93.85
77106;BME280;66057;54.718;18.426;2023-01-08T05:35:45;101006.31;;;4.00;93.16
77106;BME280;66057;54.718;18.426;2023-01-08T05:38:11;100984.53;;;4.03;93.28
77106;BME280;66057;54.718;18.426;2023-01-08T05:40:37;101011.28;;;4.21;93.67
77106;BME280;66057;54.718;18.426;2023-01-08T05:43:03;100972.03;;;4.06;93.17
77106;BME280;66057;54.718;18.426;2023-01-08T05:45:31;100995.31;;;4.24;93.28
77106;BME280;66057;54.718;18.426;2023-01-08T05:47:57;100984.38;;;4.25;93.75
77106;BME280;66057;54.718;18.426;2023-01-08T05:50:23;100971.53;;;4.23;93.10
77106;BME280;66057;54.718;18.426;2023-01-08T05:52:48;100962.03;;;4.21;93.19
77106;BME280;66057;54.718;18.426;2023-01-08T05:55:14;100966.88;;;4.29;93.55
77106;BME280;66057;54.718;18.426;2023-01-08T05:57:40;100956.06;;;4.20;92.87
77106;BME280;66057;54.718;18.426;2023-01-08T06:00:08;100970.31;;;4.30;93.00
77106;BME280;66057;54.718;18.426;2023-01-08T06:02:35;100949.41;;;4.22;93.16
77106;BME280;66057;54.718;18.426;2023-01-08T06:05:01;100953.97;;;4.26;93.52
77106;BME280;66057;54.718;18.426;2023-01-08T06:07:27;100952.25;;;4.27;93.43
77106;BME280;66057;54.718;18.426;2023-01-08T06:09:53;100957.22;;;4.37;93.32
77106;BME280;66057;54.718;18.426;2023-01-08T06:12:19;100956.84;;;4.44;92.84
77106;BME280;66057;54.718;18.426;2023-01-08T06:14:45;100959.84;;;4.50;93.06
77106;BME280;66057;54.718;18.426;2023-01-08T06:17:11;100950.31;;;4.48;93.07
77106;BME280;66057;54.718;18.426;2023-01-08T06:19:36;100951.31;;;4.50;93.16
77106;BME280;66057;54.718;18.426;2023-01-08T06:22:04;100939.03;;;4.44;93.07
77106;BME280;66057;54.718;18.426;2023-01-08T06:24:30;100963.75;;;4.58;93.33
77106;BME280;66057;54.718;18.426;2023-01-08T06:26:56;100954.25;;;4.56;93.29
77106;BME280;66057;54.718;18.426;2023-01-08T06:29:22;100956.03;;;4.57;92.84
77106;BME280;66057;54.718;18.426;2023-01-08T06:31:48;100968.28;;;4.62;92.72
77106;BME280;66057;54.718;18.426;2023-01-08T06:34:13;100970.50;;;4.58;92.48
77106;BME280;66057;54.718;18.426;2023-01-08T06:36:39;100974.38;;;4.64;92.60
77106;BME280;66057;54.718;18.426;2023-01-08T06:39:06;100971.38;;;4.70;92.91
77106;BME280;66057;54.718;18.426;2023-01-08T06:41:32;100964.50;;;4.69;92.99
77106;BME280;66057;54.718;18.426;2023-01-08T06:43:57;100934.59;;;4.66;92.79
77106;BME280;66057;54.718;18.426;2023-01-08T06:46:23;100938.81;;;4.66;92.81
77106;BME280;66057;54.718;18.426;2023-01-08T06:48:49;100927.13;;;4.56;92.59
77106;BME280;66057;54.718;18.426;2023-01-08T06:51:15;100920.31;;;4.55;93.00
77106;BME280;66057;54.718;18.426;2023-01-08T06:53:41;100928.00;;;4.57;92.83
77106;BME280;66057;54.718;18.426;2023-01-08T06:56:07;100944.78;;;4.66;92.97
77106;BME280;66057;54.718;18.426;2023-01-08T06:58:36;100965.75;;;4.75;93.66
77106;BME280;66057;54.718;18.426;2023-01-08T07:01:03;100949.22;;;4.69;93.16
77106;BME280;66057;54.718;18.426;2023-01-08T07:03:28;100950.41;;;4.74;92.90
77106;BME280;66057;54.718;18.426;2023-01-08T07:05:55;100932.63;;;4.62;93.02
77106;BME280;66057;54.718;18.426;2023-01-08T07:08:21;100950.50;;;4.75;92.87
77106;BME280;66057;54.718;18.426;2023-01-08T07:10:47;100944.13;;;4.69;92.74
77106;BME280;66057;54.718;18.426;2023-01-08T07:13:13;100964.41;;;4.80;93.00
77106;BME280;66057;54.718;18.426;2023-01-08T07:15:40;100936.06;;;4.63;92.84
77106;BME280;66057;54.718;18.426;2023-01-08T07:18:08;100956.47;;;4.76;93.24
77106;BME280;66057;54.718;18.426;2023-01-08T07:20:35;100943.25;;;4.68;92.96
77106;BME280;66057;54.718;18.426;2023-01-08T07:23:06;100952.97;;;4.74;92.59
77106;BME280;66057;54.718;18.426;2023-01-08T07:25:32;100946.25;;;4.63;93.02
77106;BME280;66057;54.718;18.426;2023-01-08T07:27:58;100962.25;;;4.73;92.68
77106;BME280;66057;54.718;18.426;2023-01-08T07:30:25;100957.81;;;4.71;93.02
77106;BME280;66057;54.718;18.426;2023-01-08T07:32:51;100957.25;;;4.75;93.04
77106;BME280;66057;54.718;18.426;2023-01-08T07:35:16;100958.06;;;4.74;93.46
77106;BME280;66057;54.718;18.426;2023-01-08T07:37:42;100957.34;;;4.76;92.89
77106;BME280;66057;54.718;18.426;2023-01-08T07:40:09;100941.78;;;4.72;92.91
77106;BME280;66057;54.718;18.426;2023-01-08T07:42:35;100947.69;;;4.84;92.56
77106;BME280;66057;54.718;18.426;2023-01-08T07:45:01;100949.25;;;4.82;93.13
77106;BME280;66057;54.718;18.426;2023-01-08T07:47:27;100952.09;;;4.87;92.23
77106;BME280;66057;54.718;18.426;2023-01-08T07:49:53;100961.81;;;4.92;92.47
77106;BME280;66057;54.718;18.426;2023-01-08T07:52:19;100920.81;;;4.76;91.87
77106;BME280;66057;54.718;18.426;2023-01-08T07:54:44;100929.88;;;4.84;92.62
77106;BME280;66057;54.718;18.426;2023-01-08T07:57:10;100942.41;;;4.94;92.05
77106;BME280;66057;54.718;18.426;2023-01-08T07:59:36;100930.06;;;4.87;92.02
77106;BME280;66057;54.718;18.426;2023-01-08T08:02:01;100952.03;;;4.98;92.11
77106;BME280;66057;54.718;18.426;2023-01-08T08:04:28;100940.66;;;4.93;91.82
77106;BME280;66057;54.718;18.426;2023-01-08T08:06:53;100944.59;;;5.01;91.34
77106;BME280;66057;54.718;18.426;2023-01-08T08:09:19;100936.06;;;5.01;90.76
77106;BME280;66057;54.718;18.426;2023-01-08T08:11:45;100943.81;;;5.02;90.90
77106;BME280;66057;54.718;18.426;2023-01-08T08:14:11;100940.06;;;4.97;91.11
77106;BME280;66057;54.718;18.426;2023-01-08T08:16:37;100946.34;;;5.02;90.79
77106;BME280;66057;54.718;18.426;2023-01-08T08:19:03;100938.50;;;4.99;90.94
77106;BME280;66057;54.718;18.426;2023-01-08T08:21:28;100922.25;;;4.97;90.56
77106;BME280;66057;54.718;18.426;2023-01-08T08:23:55;100925.28;;;5.05;89.68
77106;BME280;66057;54.718;18.426;2023-01-08T08:26:21;100908.81;;;5.00;90.02
77106;BME280;66057;54.718;18.426;2023-01-08T08:28:48;100910.09;;;5.06;88.95
77106;BME280;66057;54.718;18.426;2023-01-08T08:31:14;100926.56;;;5.11;89.06
77106;BME280;66057;54.718;18.426;2023-01-08T08:33:40;100910.00;;;5.05;88.97
77106;BME280;66057;54.718;18.426;2023-01-08T08:36:06;100928.41;;;5.14;88.96
77106;BME280;66057;54.718;18.426;2023-01-08T08:38:32;100911.66;;;5.04;89.41
77106;BME280;66057;54.718;18.426;2023-01-08T08:40:58;100910.69;;;5.02;89.50
77106;BME280;66057;54.718;18.426;2023-01-08T08:43:24;100924.31;;;5.16;89.53
77106;BME280;66057;54.718;18.426;2023-01-08T08:45:50;100920.09;;;5.16;89.60
77106;BME280;66057;54.718;18.426;2023-01-08T08:48:15;100918.03;;;5.11;90.02
77106;BME280;66057;54.718;18.426;2023-01-08T08:50:42;100906.84;;;5.09;90.18
77106;BME280;66057;54.718;18.426;2023-01-08T08:53:09;100909.13;;;5.17;89.74
77106;BME280;66057;54.718;18.426;2023-01-08T08:55:34;100879.06;;;4.99;89.94
77106;BME280;66057;54.718;18.426;2023-01-08T08:58:02;100905.88;;;5.20;89.58
77106;BME280;66057;54.718;18.426;2023-01-08T09:00:29;100897.47;;;5.21;89.73
77106;BME280;66057;54.718;18.426;2023-01-08T09:02:55;100876.09;;;5.19;89.51
77106;BME280;66057;54.718;18.426;2023-01-08T09:05:21;100891.59;;;5.22;89.66
77106;BME280;66057;54.718;18.426;2023-01-08T09:07:47;100879.13;;;5.13;89.44
77106;BME280;66057;54.718;18.426;2023-01-08T09:10:15;100887.94;;;5.18;89.90
77106;BME280;66057;54.718;18.426;2023-01-08T09:12:41;100881.00;;;5.16;89.71
77106;BME280;66057;54.718;18.426;2023-01-08T09:15:08;100867.19;;;5.12;90.07
77106;BME280;66057;54.718;18.426;2023-01-08T09:17:33;100866.91;;;5.08;89.44
77106;BME280;66057;54.718;18.426;2023-01-08T09:20:03;100832.09;;;4.95;89.92
77106;BME280;66057;54.718;18.426;2023-01-08T09:22:29;100873.66;;;5.07;89.77
77106;BME280;66057;54.718;18.426;2023-01-08T09:24:55;100859.16;;;4.93;90.35
77106;BME280;66057;54.718;18.426;2023-01-08T09:27:21;100868.34;;;5.04;90.45
77106;BME280;66057;54.718;18.426;2023-01-08T09:29:47;100871.31;;;4.97;90.43
77106;BME280;66057;54.718;18.426;2023-01-08T09:32:12;100867.75;;;4.95;90.30
77106;BME280;66057;54.718;18.426;2023-01-08T09:34:38;100840.94;;;4.87;90.27
77106;BME280;66057;54.718;18.426;2023-01-08T09:37:05;100852.09;;;4.89;90.31
77106;BME280;66057;54.718;18.426;2023-01-08T09:39:32;100863.06;;;5.01;90.39
77106;BME280;66057;54.718;18.426;2023-01-08T09:42:01;100860.69;;;5.04;90.10
77106;BME280;66057;54.718;18.426;2023-01-08T09:44:33;100856.59;;;5.06;89.51
77106;BME280;66057;54.718;18.426;2023-01-08T09:47:01;100844.75;;;5.07;89.57
77106;BME280;66057;54.718;18.426;2023-01-08T09:49:40;100841.31;;;5.06;89.80
77106;BME280;66057;54.718;18.426;2023-01-08T09:52:11;100831.53;;;5.12;89.06
77106;BME280;66057;54.718;18.426;2023-01-08T09:54:39;100811.84;;;4.97;89.44
77106;BME280;66057;54.718;18.426;2023-01-08T09:57:12;100812.50;;;4.94;89.20
77106;BME280;66057;54.718;18.426;2023-01-08T09:59:38;100821.31;;;4.99;88.84
77106;BME280;66057;54.718;18.426;2023-01-08T10:02:19;100824.84;;;5.01;89.16
77106;BME280;66057;54.718;18.426;2023-01-08T10:04:49;100796.06;;;4.89;89.03
77106;BME280;66057;54.718;18.426;2023-01-08T10:07:21;100806.56;;;4.94;89.12
77106;BME280;66057;54.718;18.426;2023-01-08T10:09:48;100818.00;;;5.00;89.28
77106;BME280;66057;54.718;18.426;2023-01-08T10:12:14;100813.41;;;5.08;88.80
77106;BME280;66057;54.718;18.426;2023-01-08T10:14:41;100793.13;;;4.96;89.12
77106;BME280;66057;54.718;18.426;2023-01-08T10:19:52;100798.59;;;5.02;89.06
77106;BME280;66057;54.718;18.426;2023-01-08T10:22:23;100775.88;;;4.92;89.30
77106;BME280;66057;54.718;18.426;2023-01-08T10:24:51;100792.81;;;5.05;89.11
77106;BME280;66057;54.718;18.426;2023-01-08T10:27:21;100786.53;;;5.00;89.19
77106;BME280;66057;54.718;18.426;2023-01-08T10:29:51;100776.06;;;4.95;89.11
77106;BME280;66057;54.718;18.426;2023-01-08T10:32:31;100791.75;;;5.01;89.37
77106;BME280;66057;54.718;18.426;2023-01-08T10:35:03;100790.84;;;5.01;89.48
77106;BME280;66057;54.718;18.426;2023-01-08T10:37:38;100765.69;;;4.92;89.43
77106;BME280;66057;54.718;18.426;2023-01-08T10:40:39;100767.47;;;4.93;89.21
77106;BME280;66057;54.718;18.426;2023-01-08T10:43:19;100773.13;;;5.02;89.25
77106;BME280;66057;54.718;18.426;2023-01-08T10:46:00;100753.34;;;4.98;89.59
77106;BME280;66057;54.718;18.426;2023-01-08T10:48:36;100763.22;;;5.07;89.53
77106;BME280;66057;54.718;18.426;2023-01-08T10:51:12;100778.22;;;5.02;89.64
77106;BME280;66057;54.718;18.426;2023-01-08T10:53:39;100752.25;;;4.95;89.98
77106;BME280;66057;54.718;18.426;2023-01-08T10:56:57;100740.06;;;4.89;90.07
77106;BME280;66057;54.718;18.426;2023-01-08T10:59:17;100738.28;;;4.88;90.22
77106;BME280;66057;54.718;18.426;2023-01-08T11:01:46;100748.66;;;4.91;89.73
77106;BME280;66057;54.718;18.426;2023-01-08T11:04:22;100758.53;;;5.00;89.90
77106;BME280;66057;54.718;18.426;2023-01-08T11:06:48;100745.63;;;4.83;89.53
77106;BME280;66057;54.718;18.426;2023-01-08T11:09:21;100740.53;;;4.83;90.27
77106;BME280;66057;54.718;18.426;2023-01-08T11:11:48;100749.53;;;4.92;89.64
77106;BME280;66057;54.718;18.426;2023-01-08T11:14:20;100737.59;;;4.77;90.24
77106;BME280;66057;54.718;18.426;2023-01-08T11:16:47;100724.97;;;4.66;90.42
77106;BME280;66057;54.718;18.426;2023-01-08T11:19:22;100755.13;;;4.86;89.87
77106;BME280;66057;54.718;18.426;2023-01-08T11:22:04;100721.25;;;4.61;90.16
77106;BME280;66057;54.718;18.426;2023-01-08T11:24:37;100744.75;;;4.83;90.14
77106;BME280;66057;54.718;18.426;2023-01-08T11:27:17;100733.56;;;4.81;89.81
77106;BME280;66057;54.718;18.426;2023-01-08T11:35:09;100706.97;;;4.63;89.55
77106;BME280;66057;54.718;18.426;2023-01-08T11:37:39;100726.41;;;4.75;90.52
77106;BME280;66057;54.718;18.426;2023-01-08T11:40:51;100742.19;;;4.83;89.77
77106;BME280;66057;54.718;18.426;2023-01-08T11:55:10;100708.72;;;4.77;90.36
77106;BME280;66057;54.718;18.426;2023-01-08T12:02:49;100688.84;;;4.71;90.31
77106;BME280;66057;54.718;18.426;2023-01-08T12:10:42;100696.84;;;4.77;90.45
77106;BME280;66057;54.718;18.426;2023-01-08T12:21:30;100652.38;;;4.86;90.21
77106;BME280;66057;54.718;18.426;2023-01-08T12:32:33;100636.03;;;4.82;90.29
77106;BME280;66057;54.718;18.426;2023-01-08T12:35:07;100643.84;;;4.85;90.24
77106;BME280;66057;54.718;18.426;2023-01-08T12:40:19;100614.53;;;4.64;90.47
77106;BME280;66057;54.718;18.426;2023-01-08T12:42:47;100615.22;;;4.61;90.32
77106;BME280;66057;54.718;18.426;2023-01-08T12:45:19;100620.88;;;4.70;90.59
77106;BME280;66057;54.718;18.426;2023-01-08T12:47:49;100634.47;;;4.84;90.45
77106;BME280;66057;54.718;18.426;2023-01-08T12:50:40;100619.88;;;4.81;90.44
77106;BME280;66057;54.718;18.426;2023-01-08T12:53:24;100611.28;;;4.79;90.49
77106;BME280;66057;54.718;18.426;2023-01-08T12:56:00;100609.09;;;4.86;90.03
77106;BME280;66057;54.718;18.426;2023-01-08T13:03:31;100588.63;;;4.84;90.31
77106;BME280;66057;54.718;18.426;2023-01-08T13:06:14;100578.97;;;4.78;90.47
77106;BME280;66057;54.718;18.426;2023-01-08T13:08:47;100586.53;;;4.92;89.58
77106;BME280;66057;54.718;18.426;2023-01-08T13:11:48;100562.53;;;4.73;90.58
77106;BME280;66057;54.718;18.426;2023-01-08T13:14:10;100572.38;;;4.82;90.48
77106;BME280;66057;54.718;18.426;2023-01-08T13:16:39;100564.72;;;4.82;90.13
77106;BME280;66057;54.718;18.426;2023-01-08T13:21:55;100570.81;;;4.84;90.49
77106;BME280;66057;54.718;18.426;2023-01-08T13:24:28;100568.28;;;4.84;90.31
77106;BME280;66057;54.718;18.426;2023-01-08T13:29:41;100558.09;;;4.84;90.46
77106;BME280;66057;54.718;18.426;2023-01-08T13:37:42;100562.97;;;4.81;90.64
77106;BME280;66057;54.718;18.426;2023-01-08T13:40:35;100560.44;;;4.81;90.28
77106;BME280;66057;54.718;18.426;2023-01-08T13:43:02;100566.28;;;4.80;90.83
77106;BME280;66057;54.718;18.426;2023-01-08T13:45:30;100556.09;;;4.80;90.66
77106;BME280;66057;54.718;18.426;2023-01-08T13:47:56;100545.94;;;4.80;90.26
77106;BME280;66057;54.718;18.426;2023-01-08T13:50:24;100539.09;;;4.79;90.55
77106;BME280;66057;54.718;18.426;2023-01-08T13:52:56;100534.00;;;4.79;90.39
77106;BME280;66057;54.718;18.426;2023-01-08T13:57:59;100514.16;;;4.73;90.86
77106;BME280;66057;54.718;18.426;2023-01-08T14:00:43;100515.63;;;4.70;91.22
77106;BME280;66057;54.718;18.426;2023-01-08T14:03:25;100522.75;;;4.75;90.54
77106;BME280;66057;54.718;18.426;2023-01-08T14:06:07;100530.47;;;4.77;91.42
77106;BME280;66057;54.718;18.426;2023-01-08T14:08:58;100522.91;;;4.64;91.18
77106;BME280;66057;54.718;18.426;2023-01-08T14:11:42;100532.25;;;4.78;91.03
77106;BME280;66057;54.718;18.426;2023-01-08T14:14:13;100513.44;;;4.76;90.97
77106;BME280;66057;54.718;18.426;2023-01-08T14:16:40;100490.25;;;4.71;91.23
77106;BME280;66057;54.718;18.426;2023-01-08T14:19:06;100432.22;;;4.66;90.99
77106;BME280;66057;54.718;18.426;2023-01-08T14:21:32;100489.06;;;4.79;90.95
77106;BME280;66057;54.718;18.426;2023-01-08T14:23:58;100500.63;;;4.74;91.21